sensor_id;sensor_type;location;lat;lon;timestamp;P1;durP1;ratioP1;P2;durP2;ratioP2
82777;SDS011;72510;45.128;20.734;2024-03-25T00:02:27;22.40;;;10.48;;
82777;SDS011;72510;45.128;20.734;2024-03-25T00:12:29;19.65;;;8.88;;
82777;SDS011;72510;45.128;20.734;2024-03-25T00:22:30;15.52;;;8.73;;
82777;SDS011;72510;45.128;20.734;2024-03-25T00:32:32;22.33;;;10.45;;
82777;SDS011;72510;45.128;20.734;2024-03-25T00:42:33;26.23;;;11.20;;
82777;SDS011;72510;45.128;20.734;2024-03-25T00:52:34;24.67;;;11.77;;
82777;SDS011;72510;45.128;20.734;2024-03-25T01:02:36;38.42;;;10.65;;
82777;SDS011;72510;45.128;20.734;2024-03-25T01:12:38;50.75;;;13.43;;
82777;SDS011;72510;45.128;20.734;2024-03-25T01:22:39;27.90;;;8.95;;
82777;SDS011;72510;45.128;20.734;2024-03-25T01:32:41;35.10;;;13.23;;
82777;SDS011;72510;45.128;20.734;2024-03-25T01:42:43;15.77;;;5.97;;
82777;SDS011;72510;45.128;20.734;2024-03-25T01:52:45;38.55;;;14.23;;
82777;SDS011;72510;45.128;20.734;2024-03-25T02:02:47;28.25;;;11.55;;
82777;SDS011;72510;45.128;20.734;2024-03-25T02:12:48;31.95;;;13.35;;
82777;SDS011;72510;45.128;20.734;2024-03-25T02:22:50;25.40;;;11.00;;
82777;SDS011;72510;45.128;20.734;2024-03-25T02:32:54;35.17;;;12.65;;
82777;SDS011;72510;45.128;20.734;2024-03-25T02:42:58;25.63;;;11.23;;
82777;SDS011;72510;45.128;20.734;2024-03-25T02:53:00;24.90;;;11.48;;
82777;SDS011;72510;45.128;20.734;2024-03-25T03:03:02;29.95;;;11.90;;
82777;SDS011;72510;45.128;20.734;2024-03-25T03:13:06;28.67;;;11.18;;
82777;SDS011;72510;45.128;20.734;2024-03-25T03:23:07;24.50;;;11.18;;
82777;SDS011;72510;45.128;20.734;2024-03-25T03:33:09;25.38;;;16.98;;
82777;SDS011;72510;45.128;20.734;2024-03-25T03:53:13;22.60;;;12.10;;
82777;SDS011;72510;45.128;20.734;2024-03-25T04:03:15;25.77;;;12.05;;
82777;SDS011;72510;45.128;20.734;2024-03-25T04:13:18;28.55;;;14.20;;
82777;SDS011;72510;45.128;20.734;2024-03-25T04:23:23;30.08;;;15.27;;
82777;SDS011;72510;45.128;20.734;2024-03-25T04:33:29;37.28;;;18.23;;
82777;SDS011;72510;45.128;20.734;2024-03-25T04:43:32;81.10;;;37.30;;
82777;SDS011;72510;45.128;20.734;2024-03-25T04:53:33;36.05;;;18.35;;
82777;SDS011;72510;45.128;20.734;2024-03-25T05:03:35;40.83;;;20.17;;
82777;SDS011;72510;45.128;20.734;2024-03-25T05:13:36;34.13;;;17.58;;
82777;SDS011;72510;45.128;20.734;2024-03-25T05:33:48;30.52;;;13.68;;
82777;SDS011;72510;45.128;20.734;2024-03-25T05:43:57;15.00;;;8.82;;
82777;SDS011;72510;45.128;20.734;2024-03-25T06:04:42;41.72;;;19.38;;
82777;SDS011;72510;45.128;20.734;2024-03-25T06:14:48;42.25;;;20.80;;
82777;SDS011;72510;45.128;20.734;2024-03-25T06:24:50;24.13;;;12.40;;
82777;SDS011;72510;45.128;20.734;2024-03-25T06:34:51;9.85;;;5.18;;
82777;SDS011;72510;45.128;20.734;2024-03-25T06:45:00;16.15;;;8.77;;
82777;SDS011;72510;45.128;20.734;2024-03-25T06:55:03;5.65;;;2.88;;
82777;SDS011;72510;45.128;20.734;2024-03-25T07:05:05;11.18;;;6.55;;
82777;SDS011;72510;45.128;20.734;2024-03-25T07:15:07;12.60;;;4.85;;
82777;SDS011;72510;45.128;20.734;2024-03-25T07:25:11;6.28;;;4.38;;
82777;SDS011;72510;45.128;20.734;2024-03-25T07:35:13;1.65;;;1.35;;
82777;SDS011;72510;45.128;20.734;2024-03-25T07:55:48;3.85;;;2.00;;
82777;SDS011;72510;45.128;20.734;2024-03-25T08:38:16;2.35;;;1.73;;
82777;SDS011;72510;45.128;20.734;2024-03-25T08:48:19;2.33;;;1.40;;
82777;SDS011;72510;45.128;20.734;2024-03-25T08:58:20;1.75;;;1.27;;
82777;SDS011;72510;45.128;20.734;2024-03-25T09:08:21;2.22;;;1.63;;
82777;SDS011;72510;45.128;20.734;2024-03-25T09:18:24;3.42;;;2.25;;
82777;SDS011;72510;45.128;20.734;2024-03-25T09:28:27;4.80;;;1.95;;
82777;SDS011;72510;45.128;20.734;2024-03-25T10:00:37;8.23;;;3.30;;
82777;SDS011;72510;45.128;20.734;2024-03-25T10:21:13;4.93;;;2.10;;
82777;SDS011;72510;45.128;20.734;2024-03-25T10:31:18;1.48;;;1.10;;
82777;SDS011;72510;45.128;20.734;2024-03-25T10:41:21;3.88;;;1.63;;
82777;SDS011;72510;45.128;20.734;2024-03-25T10:51:24;2.28;;;1.77;;
82777;SDS011;72510;45.128;20.734;2024-03-25T11:01:29;1.42;;;1.30;;
82777;SDS011;72510;45.128;20.734;2024-03-25T11:11:34;1.35;;;0.93;;
82777;SDS011;72510;45.128;20.734;2024-03-25T11:21:42;1.13;;;0.75;;
82777;SDS011;72510;45.128;20.734;2024-03-25T11:41:58;1.95;;;1.15;;
82777;SDS011;72510;45.128;20.734;2024-03-25T11:51:59;2.75;;;1.52;;
82777;SDS011;72510;45.128;20.734;2024-03-25T12:02:01;2.63;;;1.00;;
82777;SDS011;72510;45.128;20.734;2024-03-25T12:12:06;3.47;;;2.10;;
82777;SDS011;72510;45.128;20.734;2024-03-25T12:22:16;2.72;;;1.83;;
82777;SDS011;72510;45.128;20.734;2024-03-25T12:32:20;1.60;;;1.10;;
82777;SDS011;72510;45.128;20.734;2024-03-25T12:42:21;3.25;;;1.67;;
82777;SDS011;72510;45.128;20.734;2024-03-25T12:52:23;1.67;;;0.88;;
82777;SDS011;72510;45.128;20.734;2024-03-25T13:02:24;1.60;;;1.10;;
82777;SDS011;72510;45.128;20.734;2024-03-25T13:12:26;1.38;;;0.80;;
82777;SDS011;72510;45.128;20.734;2024-03-25T13:22:32;0.95;;;0.70;;
82777;SDS011;72510;45.128;20.734;2024-03-25T13:32:35;1.58;;;0.85;;
82777;SDS011;72510;45.128;20.734;2024-03-25T13:42:37;1.00;;;0.85;;
82777;SDS011;72510;45.128;20.734;2024-03-25T13:52:38;1.10;;;0.80;;
82777;SDS011;72510;45.128;20.734;2024-03-25T14:02:41;1.05;;;0.98;;
82777;SDS011;72510;45.128;20.734;2024-03-25T14:12:45;0.47;;;0.47;;
82777;SDS011;72510;45.128;20.734;2024-03-25T14:22:48;5.53;;;2.13;;
82777;SDS011;72510;45.128;20.734;2024-03-25T14:32:53;11.32;;;4.90;;
82777;SDS011;72510;45.128;20.734;2024-03-25T14:42:56;5.47;;;1.83;;
82777;SDS011;72510;45.128;20.734;2024-03-25T14:52:59;4.93;;;2.58;;
82777;SDS011;72510;45.128;20.734;2024-03-25T15:03:02;3.10;;;1.55;;
82777;SDS011;72510;45.128;20.734;2024-03-25T15:13:04;2.08;;;0.95;;
82777;SDS011;72510;45.128;20.734;2024-03-25T15:23:06;1.95;;;1.23;;
82777;SDS011;72510;45.128;20.734;2024-03-25T15:43:08;8.48;;;4.97;;
82777;SDS011;72510;45.128;20.734;2024-03-25T15:53:11;14.10;;;5.80;;
82777;SDS011;72510;45.128;20.734;2024-03-25T16:03:15;33.35;;;16.73;;
82777;SDS011;72510;45.128;20.734;2024-03-25T16:13:17;35.10;;;14.13;;
82777;SDS011;72510;45.128;20.734;2024-03-25T16:23:19;34.30;;;15.45;;
82777;SDS011;72510;45.128;20.734;2024-03-25T16:33:20;45.63;;;20.25;;
82777;SDS011;72510;45.128;20.734;2024-03-25T16:43:22;126.00;;;49.10;;
82777;SDS011;72510;45.128;20.734;2024-03-25T16:53:23;74.88;;;32.33;;
82777;SDS011;72510;45.128;20.734;2024-03-25T17:03:25;90.38;;;39.38;;
82777;SDS011;72510;45.128;20.734;2024-03-25T17:13:26;140.07;;;61.35;;
82777;SDS011;72510;45.128;20.734;2024-03-25T17:23:28;108.25;;;56.00;;
82777;SDS011;72510;45.128;20.734;2024-03-25T17:33:29;112.53;;;52.45;;
82777;SDS011;72510;45.128;20.734;2024-03-25T17:43:42;100.03;;;52.22;;
82777;SDS011;72510;45.128;20.734;2024-03-25T17:53:56;114.80;;;54.92;;
82777;SDS011;72510;45.128;20.734;2024-03-25T18:03:58;166.73;;;74.25;;
82777;SDS011;72510;45.128;20.734;2024-03-25T18:14:01;293.27;;;130.52;;
82777;SDS011;72510;45.128;20.734;2024-03-25T18:34:37;210.23;;;92.93;;
82777;SDS011;72510;45.128;20.734;2024-03-25T18:44:40;154.95;;;73.18;;
82777;SDS011;72510;45.128;20.734;2024-03-25T18:54:41;224.43;;;100.97;;
82777;SDS011;72510;45.128;20.734;2024-03-25T19:04:46;303.38;;;120.93;;
82777;SDS011;72510;45.128;20.734;2024-03-25T19:14:47;248.68;;;100.50;;
82777;SDS011;72510;45.128;20.734;2024-03-25T19:24:49;148.05;;;64.20;;
82777;SDS011;72510;45.128;20.734;2024-03-25T19:34:54;184.25;;;79.03;;
82777;SDS011;72510;45.128;20.734;2024-03-25T19:44:55;132.27;;;55.85;;
82777;SDS011;72510;45.128;20.734;2024-03-25T19:54:59;108.03;;;45.75;;
82777;SDS011;72510;45.128;20.734;2024-03-25T20:05:02;102.63;;;46.17;;
82777;SDS011;72510;45.128;20.734;2024-03-25T20:15:20;73.40;;;39.75;;
82777;SDS011;72510;45.128;20.734;2024-03-25T20:25:22;129.63;;;60.13;;
82777;SDS011;72510;45.128;20.734;2024-03-25T20:35:26;66.60;;;34.13;;
82777;SDS011;72510;45.128;20.734;2024-03-25T20:45:35;51.78;;;25.88;;
82777;SDS011;72510;45.128;20.734;2024-03-25T20:55:38;65.80;;;30.13;;
82777;SDS011;72510;45.128;20.734;2024-03-25T21:05:39;36.58;;;19.17;;
82777;SDS011;72510;45.128;20.734;2024-03-25T21:15:43;60.38;;;24.17;;
82777;SDS011;72510;45.128;20.734;2024-03-25T21:25:45;110.15;;;45.10;;
82777;SDS011;72510;45.128;20.734;2024-03-25T21:35:48;96.50;;;39.88;;
82777;SDS011;72510;45.128;20.734;2024-03-25T21:45:58;55.58;;;24.02;;
82777;SDS011;72510;45.128;20.734;2024-03-25T21:55:59;39.08;;;18.45;;
82777;SDS011;72510;45.128;20.734;2024-03-25T22:06:05;23.95;;;11.48;;
82777;SDS011;72510;45.128;20.734;2024-03-25T22:16:18;43.72;;;17.95;;
82777;SDS011;72510;45.128;20.734;2024-03-25T22:36:54;58.47;;;27.10;;
82777;SDS011;72510;45.128;20.734;2024-03-25T22:46:56;55.85;;;22.63;;
82777;SDS011;72510;45.128;20.734;2024-03-25T23:08:42;38.55;;;18.67;;
82777;SDS011;72510;45.128;20.734;2024-03-25T23:18:45;37.60;;;19.95;;
82777;SDS011;72510;45.128;20.734;2024-03-25T23:28:47;23.30;;;12.77;;
82777;SDS011;72510;45.128;20.734;2024-03-25T23:38:48;25.33;;;12.57;;
82777;SDS011;72510;45.128;20.734;2024-03-25T23:48:49;24.02;;;12.32;;
82777;SDS011;72510;45.128;20.734;2024-03-25T23:58:51;12.52;;;7.90;;
